Time;durP1;ratioP1;P1;durP2;ratioP2;P2;SDS_P1;SDS_P2;PMS_P1;PMS_P2;Temp;Humidity;BMP_temperature;BMP_pressure;BME280_temperature;BME280_humidity;BME280_pressure;Samples;Min_cycle;Max_cycle;Signal;HPM_P1;HPM_P2
2022/10/11 00:02:02;;;;;;;11.70;6.32;;;;;;;6.38;100.00;102402.69;5049547;28;20380;-67
2022/10/11 00:04:27;;;;;;;13.50;6.40;;;;;;;6.35;99.82;102397.59;5049103;28;20031;-67
2022/10/11 00:06:53;;;;;;;13.15;6.15;;;;;;;6.35;99.92;102397.59;5038368;28;20349;-67
2022/10/11 00:09:18;;;;;;;13.70;5.85;;;;;;;6.34;99.52;102397.78;5047438;28;20076;-68
2022/10/11 00:11:44;;;;;;;13.82;6.35;;;;;;;6.36;99.66;102393.00;5029887;28;20064;-67
2022/10/11 00:14:09;;;;;;;11.27;6.20;;;;;;;6.34;99.58;102393.16;5046859;28;20383;-67
2022/10/11 00:16:37;;;;;;;12.82;7.00;;;;;;;6.33;99.68;102401.50;5048539;28;20063;-67
2022/10/11 00:19:02;;;;;;;12.02;6.22;;;;;;;6.32;99.38;102400.63;5048195;28;20124;-68
2022/10/11 00:21:28;;;;;;;12.55;6.45;;;;;;;6.29;99.38;102397.41;5048269;28;20104;-67
2022/10/11 00:23:53;;;;;;;11.40;6.57;;;;;;;6.22;99.45;102398.03;5036680;28;20182;-67
2022/10/11 00:26:18;;;;;;;11.18;6.18;;;;;;;6.19;99.91;102392.94;5047863;28;20056;-68
2022/10/11 00:28:43;;;;;;;11.75;6.40;;;;;;;6.17;100.00;102399.56;5048237;28;20033;-67
2022/10/11 00:31:12;;;;;;;11.65;6.43;;;;;;;6.13;100.00;102399.06;5036445;28;20409;-67
2022/10/11 00:33:38;;;;;;;10.52;6.38;;;;;;;6.09;100.00;102403.13;5048016;28;20061;-67
2022/10/11 00:36:03;;;;;;;11.23;6.15;;;;;;;6.04;99.86;102407.34;5048256;28;20060;-67
2022/10/11 00:38:29;;;;;;;11.68;6.35;;;;;;;6.01;99.54;102408.50;5047761;28;20033;-67
2022/10/11 00:40:54;;;;;;;10.48;6.38;;;;;;;5.99;99.70;102407.84;5047111;28;20029;-67
2022/10/11 00:43:23;;;;;;;12.18;5.93;;;;;;;5.92;99.77;102404.03;5045918;28;20475;-67
2022/10/11 00:46:01;;;;;;;12.63;6.50;;;;;;;5.88;99.78;102406.22;5047733;28;20090;-67
2022/10/11 00:48:41;;;;;;;12.18;6.10;;;;;;;5.83;99.45;102402.22;5048129;28;20625;-67
2022/10/11 00:51:24;;;;;;;9.90;5.50;;;;;;;5.80;99.39;102417.06;5048470;28;20094;-67
2022/10/11 00:53:51;;;;;;;12.80;6.57;;;;;;;5.86;99.55;102423.75;5047430;28;20036;-67
2022/10/11 00:56:25;;;;;;;9.43;5.53;;;;;;;5.88;99.95;102417.13;5045913;28;20037;-67
2022/10/11 00:58:51;;;;;;;9.82;5.60;;;;;;;5.89;99.67;102415.25;5048652;28;20032;-67
2022/10/11 01:01:16;;;;;;;9.30;5.50;;;;;;;5.83;99.27;102419.47;5048871;28;20041;-67
2022/10/11 01:03:43;;;;;;;9.88;6.20;;;;;;;5.77;99.30;102414.66;5048575;28;20021;-67
2022/10/11 01:06:09;;;;;;;12.55;5.93;;;;;;;5.75;99.18;102422.13;5046230;28;20086;-67
2022/10/11 01:08:34;;;;;;;10.38;5.93;;;;;;;5.72;99.29;102426.03;5047500;28;20128;-67
2022/10/11 01:11:01;;;;;;;10.63;5.82;;;;;;;5.69;99.28;102426.38;5043876;28;20477;-67
2022/10/11 01:13:49;;;;;;;10.30;6.40;;;;;;;5.75;99.51;102421.28;5087465;22;20054;-67
2022/10/11 01:16:24;;;;;;;9.70;5.30;;;;;;;5.70;99.11;102435.41;5025281;28;20037;-67
2022/10/11 01:19:04;;;;;;;10.88;5.80;;;;;;;5.66;98.86;102423.94;5027018;28;20033;-67
2022/10/11 01:21:43;;;;;;;10.35;6.25;;;;;;;5.65;99.20;102427.69;5024771;28;20038;-68
2022/10/11 01:24:30;;;;;;;11.57;5.43;;;;;;;5.59;99.18;102428.34;5020552;28;20106;-67
2022/10/11 01:27:14;;;;;;;12.73;5.93;;;;;;;5.57;98.50;102429.50;5026180;28;20156;-67
2022/10/11 01:29:58;;;;;;;14.00;6.10;;;;;;;5.54;98.62;102425.22;5027952;28;20033;-67
2022/10/11 01:32:37;;;;;;;10.20;5.90;;;;;;;5.47;99.15;102430.47;5026710;28;20029;-67
2022/10/11 01:35:32;;;;;;;14.07;6.65;;;;;;;5.49;99.75;102429.44;5033355;28;20039;-67
2022/10/11 01:38:06;;;;;;;9.02;5.72;;;;;;;5.44;99.81;102424.47;5024618;28;20041;-67
2022/10/11 01:40:38;;;;;;;9.70;6.13;;;;;;;5.47;99.44;102425.03;5026284;28;20037;-67
2022/10/11 01:43:04;;;;;;;8.95;5.97;;;;;;;5.46;99.18;102423.28;5026012;28;20025;-67
2022/10/11 01:45:31;;;;;;;9.43;6.10;;;;;;;5.45;99.20;102434.34;5026247;28;20041;-67
2022/10/11 01:48:08;;;;;;;10.10;6.27;;;;;;;5.42;98.71;102431.94;5025628;28;20040;-67
2022/10/11 01:50:39;;;;;;;8.98;5.88;;;;;;;5.31;98.11;102440.34;5027054;28;20029;-67
2022/10/11 01:53:45;;;;;;;10.43;6.38;;;;;;;5.33;98.93;102435.63;5026940;28;20463;-67
2022/10/11 01:56:19;;;;;;;10.63;5.70;;;;;;;5.33;99.12;102433.75;5019961;28;20037;-67
2022/10/11 01:59:06;;;;;;;12.10;6.57;;;;;;;5.36;99.31;102438.88;5025131;28;20021;-68
2022/10/11 02:01:53;;;;;;;8.90;6.25;;;;;;;5.40;99.53;102433.97;5026298;28;20506;-68
2022/10/11 02:04:21;;;;;;;11.95;6.70;;;;;;;5.39;99.41;102433.13;5026633;28;20733;-68
2022/10/11 02:07:03;;;;;;;11.15;6.57;;;;;;;5.42;99.38;102448.28;5024693;28;20443;-68
2022/10/11 02:09:32;;;;;;;12.23;6.60;;;;;;;5.41;99.44;102455.59;5042419;28;20404;-68
2022/10/11 02:12:04;;;;;;;11.85;6.65;;;;;;;5.35;99.46;102448.06;5023837;28;20029;-68
2022/10/11 02:14:35;;;;;;;12.63;6.72;;;;;;;5.36;99.39;102454.38;5025359;28;20107;-68
2022/10/11 02:17:07;;;;;;;11.30;6.32;;;;;;;5.32;99.12;102453.84;5025985;28;20037;-68
2022/10/11 02:19:40;;;;;;;15.40;7.03;;;;;;;5.28;99.26;102457.03;5025272;28;20060;-68
2022/10/11 02:22:12;;;;;;;11.93;6.30;;;;;;;5.24;99.54;102455.63;5024250;28;20017;-68
2022/10/11 02:24:42;;;;;;;9.73;6.60;;;;;;;5.25;99.66;102457.34;5026637;28;20037;-67
2022/10/11 02:27:10;;;;;;;10.68;6.35;;;;;;;5.25;99.81;102458.19;5025204;28;20107;-68
2022/10/11 02:29:40;;;;;;;11.57;6.65;;;;;;;5.23;99.74;102453.94;5027048;28;20029;-68
2022/10/11 02:32:07;;;;;;;11.57;6.07;;;;;;;5.19;99.68;102451.50;5025461;28;20025;-68
2022/10/11 02:34:38;;;;;;;11.73;6.03;;;;;;;5.15;99.38;102458.25;5022985;28;20108;-68
2022/10/11 02:37:24;;;;;;;10.35;6.38;;;;;;;5.08;99.36;102456.34;5006559;28;20508;-67
2022/10/11 02:39:57;;;;;;;13.23;6.57;;;;;;;5.05;99.53;102462.06;5006968;28;20038;-68
2022/10/11 02:42:29;;;;;;;13.30;6.55;;;;;;;5.04;100.00;102455.78;5007046;28;20376;-68
2022/10/11 02:45:06;;;;;;;10.80;7.03;;;;;;;5.02;100.00;102462.38;5006744;28;20033;-68
2022/10/11 02:47:32;;;;;;;11.52;6.60;;;;;;;5.00;100.00;102462.53;5022624;28;20033;-68
2022/10/11 02:49:58;;;;;;;12.02;6.15;;;;;;;4.97;99.97;102461.97;5024971;28;20040;-67
2022/10/11 02:52:24;;;;;;;11.30;6.93;;;;;;;4.97;99.59;102468.31;5026492;28;20422;-68
2022/10/11 02:54:50;;;;;;;11.98;6.35;;;;;;;4.94;99.93;102464.00;5028436;28;20061;-67
2022/10/11 02:57:16;;;;;;;11.85;6.55;;;;;;;4.97;100.00;102459.25;5029155;28;20041;-67
2022/10/11 02:59:41;;;;;;;12.43;6.75;;;;;;;4.93;100.00;102456.88;5027562;28;20364;-68
2022/10/11 03:02:06;;;;;;;10.63;7.00;;;;;;;4.92;99.77;102454.31;5029066;28;20069;-68
2022/10/11 03:04:31;;;;;;;13.45;6.68;;;;;;;4.90;99.68;102453.59;5029871;28;20090;-68
2022/10/11 03:06:56;;;;;;;12.35;7.38;;;;;;;4.88;99.91;102458.34;5029548;28;20029;-68
2022/10/11 03:09:22;;;;;;;11.23;6.55;;;;;;;4.87;100.00;102462.09;5029699;28;20060;-69
2022/10/11 03:11:47;;;;;;;10.70;6.65;;;;;;;4.86;100.00;102471.22;5029007;28;20033;-69
2022/10/11 03:14:12;;;;;;;8.95;6.53;;;;;;;4.82;99.75;102467.97;5028872;28;20414;-68
2022/10/11 03:16:38;;;;;;;11.00;6.40;;;;;;;4.74;99.41;102467.88;5027631;28;20029;-68
2022/10/11 03:19:03;;;;;;;11.68;6.28;;;;;;;4.70;99.25;102474.63;5029214;28;20079;-68
2022/10/11 03:21:28;;;;;;;11.65;6.53;;;;;;;4.69;99.21;102467.47;5028708;28;20040;-68
2022/10/11 03:23:54;;;;;;;11.10;6.13;;;;;;;4.67;99.63;102470.38;5029130;28;20395;-68
2022/10/11 03:26:19;;;;;;;11.38;6.72;;;;;;;4.65;99.59;102480.53;5028664;28;20029;-68
2022/10/11 03:28:44;;;;;;;12.25;6.90;;;;;;;4.68;99.48;102479.38;5029714;28;20438;-67
2022/10/11 03:31:10;;;;;;;10.73;6.55;;;;;;;4.70;99.73;102471.91;5028102;28;20029;-68
2022/10/11 03:33:35;;;;;;;10.68;6.53;;;;;;;4.74;99.91;102476.03;5029520;28;20073;-68
2022/10/11 03:36:01;;;;;;;13.77;7.00;;;;;;;4.71;99.66;102481.78;5029385;28;20422;-68
2022/10/11 03:38:27;;;;;;;12.80;6.88;;;;;;;4.71;100.00;102481.78;5029317;28;20080;-68
2022/10/11 03:40:52;;;;;;;10.13;6.07;;;;;;;4.68;100.00;102477.50;5028834;28;20420;-68
2022/10/11 03:43:17;;;;;;;10.48;6.28;;;;;;;4.64;99.66;102483.41;5028442;28;20500;-68
2022/10/11 03:45:43;;;;;;;10.25;6.22;;;;;;;4.58;99.33;102479.44;5029321;28;20033;-68
2022/10/11 03:48:09;;;;;;;13.23;6.07;;;;;;;4.52;99.28;102481.91;5029463;28;20030;-68
2022/10/11 03:50:35;;;;;;;11.30;6.28;;;;;;;4.51;99.51;102482.88;5028146;28;20009;-68
2022/10/11 03:53:00;;;;;;;8.85;5.85;;;;;;;4.56;99.80;102483.28;5028180;28;20033;-68
2022/10/11 03:55:25;;;;;;;9.27;6.15;;;;;;;4.56;99.94;102484.19;5026276;28;20033;-68
2022/10/11 03:57:51;;;;;;;9.38;5.70;;;;;;;4.50;99.49;102486.63;5027938;28;20037;-67
2022/10/11 04:00:16;;;;;;;9.45;5.75;;;;;;;4.45;99.83;102489.78;5027702;28;20033;-68
2022/10/11 04:02:41;;;;;;;9.43;6.10;;;;;;;4.37;99.52;102492.44;5029926;28;20025;-68
2022/10/11 04:05:07;;;;;;;10.38;5.75;;;;;;;4.29;99.51;102498.59;5027656;28;20040;-68
2022/10/11 04:07:32;;;;;;;9.88;6.30;;;;;;;4.24;99.95;102500.91;5023926;28;20077;-68
2022/10/11 04:09:58;;;;;;;9.57;6.30;;;;;;;4.25;100.00;102502.63;5027719;28;20061;-68
2022/10/11 04:12:24;;;;;;;9.40;6.35;;;;;;;4.28;100.00;102498.75;5028903;28;20026;-69
2022/10/11 04:14:49;;;;;;;11.90;6.80;;;;;;;4.30;100.00;102491.28;5027067;28;20399;-68
2022/10/11 04:17:15;;;;;;;11.95;7.03;;;;;;;4.36;100.00;102496.16;5028703;28;20040;-68
2022/10/11 04:19:40;;;;;;;12.10;7.22;;;;;;;4.37;100.00;102506.03;5028702;28;20390;-68
2022/10/11 04:22:06;;;;;;;9.93;6.43;;;;;;;4.37;100.00;102501.44;5027839;28;20111;-68
2022/10/11 04:24:31;;;;;;;9.68;6.30;;;;;;;4.36;100.00;102504.31;5026975;28;20037;-69
2022/10/11 04:26:56;;;;;;;12.32;7.00;;;;;;;4.31;100.00;102514.75;5027761;28;20041;-69
2022/10/11 04:29:22;;;;;;;10.50;6.60;;;;;;;4.31;100.00;102514.75;5029094;28;20109;-69
2022/10/11 04:31:48;;;;;;;11.55;6.97;;;;;;;4.31;100.00;102515.66;5027871;28;20030;-68
2022/10/11 04:34:13;;;;;;;10.50;6.97;;;;;;;4.29;100.00;102514.06;5028846;28;20511;-68
2022/10/11 04:36:38;;;;;;;10.23;6.53;;;;;;;4.28;100.00;102517.78;5026849;28;20075;-68
2022/10/11 04:39:05;;;;;;;10.27;6.55;;;;;;;4.28;100.00;102526.81;5027521;28;20467;-68
2022/10/11 04:41:31;;;;;;;13.70;7.43;;;;;;;4.23;100.00;102523.69;5027910;28;20029;-68
2022/10/11 04:43:56;;;;;;;12.20;6.95;;;;;;;4.15;100.00;102529.84;5027470;28;20038;-68
2022/10/11 04:46:22;;;;;;;9.75;6.88;;;;;;;4.16;100.00;102530.72;5026086;28;20040;-68
2022/10/11 04:48:48;;;;;;;12.02;6.45;;;;;;;4.14;100.00;102519.97;5028069;28;20040;-69
2022/10/11 04:51:13;;;;;;;12.27;6.47;;;;;;;4.15;100.00;102520.81;5026709;28;20064;-68
2022/10/11 04:53:38;;;;;;;10.95;7.18;;;;;;;4.14;100.00;102532.72;5025251;28;20041;-68
2022/10/11 04:56:09;;;;;;;12.05;6.95;;;;;;;4.13;100.00;102533.72;5025565;28;20037;-68
2022/10/11 04:58:35;;;;;;;11.52;6.65;;;;;;;4.14;100.00;102535.44;5024809;28;20033;-68
2022/10/11 05:01:00;;;;;;;10.18;7.15;;;;;;;4.15;100.00;102529.84;5026423;28;20515;-68
2022/10/11 05:03:26;;;;;;;11.38;7.13;;;;;;;4.15;100.00;102529.84;5026182;28;20118;-68
2022/10/11 05:05:51;;;;;;;10.20;7.50;;;;;;;4.15;100.00;102537.13;5025467;28;20044;-68
2022/10/11 05:08:17;;;;;;;9.77;6.45;;;;;;;4.11;100.00;102533.88;5027373;28;20029;-69
2022/10/11 05:10:56;;;;;;;10.07;6.80;;;;;;;4.10;100.00;102531.28;5026110;28;20060;-69
2022/10/11 05:13:22;;;;;;;10.07;6.97;;;;;;;4.06;100.00;102538.91;5027866;28;20029;-68
2022/10/11 05:15:47;;;;;;;10.40;7.57;;;;;;;4.07;100.00;102532.44;5026622;28;20076;-68
2022/10/11 05:18:12;;;;;;;12.27;6.93;;;;;;;4.06;100.00;102533.47;5026913;28;20040;-69
2022/10/11 05:20:38;;;;;;;11.65;7.43;;;;;;;4.04;100.00;102538.16;5024636;28;20049;-68
2022/10/11 05:23:03;;;;;;;14.18;7.53;;;;;;;4.00;100.00;102534.03;5027735;28;20034;-68
2022/10/11 05:25:28;;;;;;;11.18;6.63;;;;;;;3.98;100.00;102544.19;5042220;28;20025;-68
2022/10/11 05:27:54;;;;;;;14.60;8.10;;;;;;;3.95;100.00;102539.03;5026338;28;20053;-68
2022/10/11 05:30:19;;;;;;;10.40;7.20;;;;;;;3.93;100.00;102551.94;5025412;28;20025;-68
2022/10/11 05:32:44;;;;;;;12.10;7.63;;;;;;;3.84;100.00;102550.94;5026869;28;20448;-68
2022/10/11 05:35:09;;;;;;;11.88;7.78;;;;;;;3.82;100.00;102554.81;5024900;28;20025;-68
2022/10/11 05:37:35;;;;;;;9.98;7.25;;;;;;;3.82;100.00;102552.94;5026380;28;20564;-68
2022/10/11 05:40:00;;;;;;;12.20;7.72;;;;;;;3.84;100.00;102558.22;5040015;28;20033;-68
2022/10/11 05:42:25;;;;;;;11.50;7.45;;;;;;;3.84;100.00;102553.66;5042197;28;20087;-68
2022/10/11 05:44:51;;;;;;;12.75;7.72;;;;;;;3.84;100.00;102561.81;5027392;28;20121;-68
2022/10/11 05:47:16;;;;;;;11.63;7.85;;;;;;;3.83;100.00;102560.09;5025189;28;20120;-67
2022/10/11 05:49:41;;;;;;;11.38;7.45;;;;;;;3.85;100.00;102565.38;5041282;28;20029;-68
2022/10/11 05:52:08;;;;;;;12.82;8.85;;;;;;;3.84;100.00;102559.09;5026488;28;20064;-68
2022/10/11 05:54:33;;;;;;;15.30;8.98;;;;;;;3.84;100.00;102566.38;5026380;28;20114;-68
2022/10/11 05:56:58;;;;;;;11.52;8.48;;;;;;;3.83;100.00;102559.25;5025025;28;20132;-69
2022/10/11 05:59:24;;;;;;;13.07;8.10;;;;;;;3.80;100.00;102568.56;5025736;28;20397;-69
2022/10/11 06:01:49;;;;;;;11.55;8.88;;;;;;;3.82;100.00;102571.97;5027648;28;20034;-69
2022/10/11 06:04:15;;;;;;;13.70;8.63;;;;;;;3.80;100.00;102571.28;5026114;28;20138;-69
2022/10/11 06:06:40;;;;;;;10.25;7.60;;;;;;;3.76;100.00;102580.72;5026166;28;20025;-71
2022/10/11 06:09:06;;;;;;;11.98;8.95;;;;;;;3.77;100.00;102578.84;5025207;28;20503;-69
2022/10/11 06:11:31;;;;;;;12.77;8.15;;;;;;;3.78;100.00;102578.69;5025057;28;20120;-69
2022/10/11 06:13:57;;;;;;;13.20;7.95;;;;;;;3.82;100.00;102582.84;5026542;28;20064;-69
2022/10/11 06:16:23;;;;;;;11.45;8.15;;;;;;;3.86;100.00;102588.88;5025952;28;20029;-69
2022/10/11 06:18:55;;;;;;;15.05;8.35;;;;;;;3.85;100.00;102579.84;5025835;28;20048;-68
2022/10/11 06:21:20;;;;;;;15.88;8.52;;;;;;;3.88;100.00;102587.69;5025688;28;20508;-69
2022/10/11 06:23:50;;;;;;;15.18;9.70;;;;;;;3.93;100.00;102587.28;5025339;28;20034;-69
2022/10/11 06:26:16;;;;;;;15.18;11.85;;;;;;;3.97;100.00;102594.13;5027119;28;20435;-69
2022/10/11 06:28:41;;;;;;;15.70;11.65;;;;;;;4.00;100.00;102598.41;5026650;28;20021;-69
2022/10/11 06:31:07;;;;;;;12.52;11.20;;;;;;;4.00;100.00;102598.41;5025057;28;20376;-68
2022/10/11 06:33:33;;;;;;;13.57;10.02;;;;;;;3.97;100.00;102605.00;5026964;28;20072;-69
2022/10/11 06:36:00;;;;;;;12.52;9.43;;;;;;;4.00;100.00;102606.56;5026899;28;20116;-69
2022/10/11 06:38:25;;;;;;;14.55;9.35;;;;;;;4.05;100.00;102602.41;5027326;28;20018;-69
2022/10/11 06:40:51;;;;;;;14.15;9.15;;;;;;;4.10;100.00;102601.97;5024700;28;20325;-68
2022/10/11 06:43:16;;;;;;;12.25;8.80;;;;;;;4.15;100.00;102610.56;5027705;28;20108;-68
2022/10/11 06:45:41;;;;;;;14.02;9.02;;;;;;;4.21;100.00;102615.44;5023632;28;20470;-68
2022/10/11 06:48:06;;;;;;;13.88;8.60;;;;;;;4.25;100.00;102613.25;5027217;28;20080;-68
2022/10/11 06:50:32;;;;;;;13.93;8.68;;;;;;;4.31;100.00;102608.13;5023177;28;20025;-68
2022/10/11 06:52:58;;;;;;;11.30;8.23;;;;;;;4.38;100.00;102619.25;5023036;28;20025;-68
2022/10/11 06:55:23;;;;;;;13.43;9.15;;;;;;;4.46;100.00;102613.97;5019906;28;20045;-68
2022/10/11 06:57:49;;;;;;;12.35;8.50;;;;;;;4.55;100.00;102609.47;5009070;28;20034;-68
2022/10/11 07:00:14;;;;;;;14.32;9.38;;;;;;;4.64;100.00;102623.06;5006721;28;20041;-68
2022/10/11 07:02:40;;;;;;;12.63;9.30;;;;;;;4.71;100.00;102622.44;5025365;28;20025;-68
2022/10/11 07:05:06;;;;;;;13.77;9.20;;;;;;;4.78;100.00;102612.69;5024129;28;20675;-69
2022/10/11 07:07:31;;;;;;;12.15;9.13;;;;;;;4.92;100.00;102620.38;5026931;28;20495;-69
2022/10/11 07:09:56;;;;;;;12.63;9.32;;;;;;;5.04;100.00;102626.47;5024133;28;20073;-69
2022/10/11 07:12:21;;;;;;;15.65;10.80;;;;;;;5.16;100.00;102631.56;5026608;28;20021;-68
2022/10/11 07:14:47;;;;;;;14.88;10.00;;;;;;;5.30;100.00;102632.06;5025538;28;20060;-67
2022/10/11 07:17:12;;;;;;;14.90;9.65;;;;;;;5.38;100.00;102624.00;5026244;28;20067;-67
2022/10/11 07:19:37;;;;;;;16.00;9.93;;;;;;;5.51;100.00;102627.19;5027161;28;20300;-67
2022/10/11 07:22:03;;;;;;;13.82;10.07;;;;;;;5.57;100.00;102632.03;5022801;28;20506;-67
2022/10/11 07:24:28;;;;;;;17.98;11.60;;;;;;;5.66;100.00;102627.53;5023785;28;20668;-68
2022/10/11 07:26:53;;;;;;;16.60;12.10;;;;;;;5.81;100.00;102633.31;5024154;28;20021;-68
2022/10/11 07:29:19;;;;;;;18.23;11.80;;;;;;;5.96;100.00;102634.50;5023980;28;20117;-69
2022/10/11 07:31:44;;;;;;;20.70;11.68;;;;;;;6.03;100.00;102630.13;5021902;28;20116;-67
2022/10/11 07:34:10;;;;;;;17.50;11.73;;;;;;;6.16;100.00;102632.47;5023744;28;20116;-67
2022/10/11 07:36:36;;;;;;;14.75;10.05;;;;;;;6.23;100.00;102638.97;5020346;28;20033;-67
2022/10/11 07:39:03;;;;;;;16.52;10.98;;;;;;;6.36;100.00;102638.59;5019652;28;20061;-67
2022/10/11 07:41:29;;;;;;;15.95;12.00;;;;;;;6.43;100.00;102645.09;5026384;28;20025;-67
2022/10/11 07:43:54;;;;;;;14.75;12.93;;;;;;;6.50;100.00;102640.75;5028201;28;20116;-68
2022/10/11 07:46:19;;;;;;;19.27;12.82;;;;;;;6.58;100.00;102646.25;5029789;28;20629;-69
2022/10/11 07:48:45;;;;;;;17.23;12.18;;;;;;;6.65;100.00;102638.28;5030734;28;20104;-68
2022/10/11 07:51:13;;;;;;;16.55;11.80;;;;;;;6.76;100.00;102643.47;5029390;28;20023;-68
2022/10/11 07:53:43;;;;;;;17.13;12.40;;;;;;;6.90;100.00;102636.56;5028452;28;20136;-68
2022/10/11 07:56:11;;;;;;;17.88;12.65;;;;;;;7.01;100.00;102650.78;5027090;28;20037;-68
2022/10/11 07:58:37;;;;;;;19.85;12.02;;;;;;;7.18;100.00;102654.44;5030093;28;20036;-69
2022/10/11 08:01:03;;;;;;;20.25;12.57;;;;;;;7.36;100.00;102650.75;5028055;28;20535;-68
2022/10/11 08:03:28;;;;;;;19.55;11.90;;;;;;;7.54;100.00;102651.50;5028662;28;20029;-69
2022/10/11 08:05:53;;;;;;;16.38;11.85;;;;;;;7.72;100.00;102648.63;5028853;28;20071;-68
2022/10/11 08:08:19;;;;;;;16.75;11.13;;;;;;;7.98;100.00;102648.50;5029631;28;20376;-68
2022/10/11 08:10:44;;;;;;;16.55;11.68;;;;;;;8.31;100.00;102649.34;5029471;28;20026;-68
2022/10/11 08:13:09;;;;;;;15.25;9.57;;;;;;;8.44;100.00;102654.34;5027723;28;20029;-68
2022/10/11 08:15:35;;;;;;;15.38;9.60;;;;;;;8.49;100.00;102662.91;5029463;28;20052;-68
2022/10/11 08:18:00;;;;;;;17.35;9.75;;;;;;;8.59;100.00;102663.59;5029647;28;20041;-68
2022/10/11 08:20:25;;;;;;;13.70;9.65;;;;;;;8.66;100.00;102661.00;5029107;28;20135;-68
2022/10/11 08:22:51;;;;;;;17.00;10.30;;;;;;;8.79;100.00;102667.66;5028749;28;20033;-68
2022/10/11 08:25:16;;;;;;;17.27;10.65;;;;;;;8.92;100.00;102658.03;5028822;28;20523;-68
2022/10/11 08:27:41;;;;;;;17.02;9.75;;;;;;;9.16;99.72;102657.94;5028889;28;20075;-68
2022/10/11 08:30:07;;;;;;;16.10;10.35;;;;;;;9.35;98.47;102657.53;5028943;28;20383;-68
2022/10/11 08:32:32;;;;;;;15.27;9.32;;;;;;;9.51;98.62;102658.50;5027158;28;20079;-68
2022/10/11 08:34:58;;;;;;;11.65;8.82;;;;;;;9.77;98.50;102672.75;5028863;28;20037;-69
2022/10/11 08:37:23;;;;;;;13.38;8.43;;;;;;;10.32;95.63;102665.34;5029034;28;20025;-69
2022/10/11 08:39:48;;;;;;;14.75;7.47;;;;;;;11.12;92.22;102670.22;5028759;28;20057;-68
2022/10/11 08:42:29;;;;;;;14.13;7.65;;;;;;;11.59;89.46;102674.44;5028649;28;20025;-68
2022/10/11 08:45:02;;;;;;;12.50;6.20;;;;;;;12.02;86.57;102672.66;5029222;28;20400;-68
2022/10/11 08:47:43;;;;;;;15.13;5.70;;;;;;;12.43;84.99;102671.97;5029607;28;20040;-68
2022/10/11 08:50:22;;;;;;;15.63;6.20;;;;;;;13.32;80.93;102663.91;5028400;28;20029;-69
2022/10/11 08:52:53;;;;;;;12.55;5.25;;;;;;;14.18;74.60;102666.09;5017760;28;20029;-69
2022/10/11 08:55:57;;;;;;;11.65;5.72;;;;;;;14.77;75.60;102663.41;5025930;28;20071;-68
2022/10/11 08:58:45;;;;;;;10.98;5.00;;;;;;;15.56;74.73;102669.78;5016782;28;20048;-68
2022/10/11 09:01:22;;;;;;;11.07;5.15;;;;;;;17.22;65.74;102668.56;5021872;28;20073;-68
2022/10/11 09:03:49;;;;;;;12.00;5.00;;;;;;;18.59;57.90;102672.44;5022640;28;20091;-68
2022/10/11 09:06:26;;;;;;;11.95;5.13;;;;;;;19.69;56.24;102670.81;5026397;28;20049;-68
2022/10/11 09:09:26;;;;;;;12.73;5.05;;;;;;;20.80;59.54;102681.53;5023089;28;20036;-68
2022/10/11 09:12:21;;;;;;;12.80;5.22;;;;;;;21.89;53.12;102678.00;4983051;28;20112;-68
2022/10/11 09:15:15;;;;;;;12.32;4.63;;;;;;;23.01;48.56;102684.66;5024073;28;20495;-68
2022/10/11 09:18:00;;;;;;;9.63;4.80;;;;;;;23.49;46.01;102680.75;5023832;28;20071;-68
2022/10/11 09:20:28;;;;;;;11.77;4.85;;;;;;;23.39;41.54;102686.31;5026439;28;20020;-67
2022/10/11 09:23:10;;;;;;;13.20;4.47;;;;;;;23.66;44.46;102677.75;5033904;28;20032;-68
2022/10/11 09:26:03;;;;;;;13.38;4.70;;;;;;;23.83;46.51;102682.31;5023590;28;20065;-67
2022/10/11 09:28:57;;;;;;;14.70;4.95;;;;;;;23.35;46.51;102685.16;5027551;28;20048;-67
2022/10/11 09:31:22;;;;;;;16.60;5.20;;;;;;;23.36;42.65;102686.84;5022522;28;20040;-69
2022/10/11 09:33:50;;;;;;;15.57;4.55;;;;;;;24.17;40.99;102685.47;5014726;28;20041;-67
2022/10/11 09:36:32;;;;;;;15.23;4.78;;;;;;;25.10;42.79;102685.25;5016257;28;20044;-67
2022/10/11 09:39:23;;;;;;;11.75;4.07;;;;;;;26.11;38.15;102674.72;5026207;28;20067;-67
2022/10/11 09:42:02;;;;;;;13.80;4.00;;;;;;;26.63;38.60;102681.66;5021862;28;20037;-67
2022/10/11 09:44:40;;;;;;;12.48;3.80;;;;;;;26.77;37.46;102685.50;5022129;28;20037;-67
2022/10/11 09:47:12;;;;;;;11.57;4.05;;;;;;;26.90;34.25;102672.66;5020831;28;20075;-68
2022/10/11 09:49:41;;;;;;;14.23;4.10;;;;;;;27.22;35.94;102676.88;5024115;28;20037;-67
2022/10/11 09:52:14;;;;;;;12.55;3.70;;;;;;;27.69;35.10;102681.66;5018521;28;20087;-67
2022/10/11 09:54:43;;;;;;;13.43;3.60;;;;;;;27.26;31.18;102675.97;5017567;28;20033;-67
2022/10/11 09:57:19;;;;;;;12.07;3.17;;;;;;;27.59;33.87;102668.53;5015623;28;20030;-68
2022/10/11 09:59:58;;;;;;;11.30;2.85;;;;;;;27.79;34.48;102675.91;5021509;28;20037;-67
2022/10/11 10:02:24;;;;;;;11.63;3.13;;;;;;;28.03;29.78;102686.28;5023204;28;20029;-68
2022/10/11 10:04:52;;;;;;;12.48;3.00;;;;;;;27.94;30.96;102677.69;5026481;28;20036;-67
2022/10/11 10:07:17;;;;;;;12.48;3.25;;;;;;;28.56;30.46;102674.75;5014700;28;20096;-67
2022/10/11 10:09:42;;;;;;;12.15;2.58;;;;;;;29.33;28.71;102680.69;5027375;28;20382;-66
2022/10/11 10:12:13;;;;;;;8.15;2.47;;;;;;;29.08;28.19;102681.19;5024865;28;20411;-66
2022/10/11 10:14:40;;;;;;;9.57;2.10;;;;;;;28.89;28.05;102667.09;5017705;28;20136;-67
2022/10/11 10:17:14;;;;;;;11.43;2.53;;;;;;;28.90;30.03;102672.44;5035837;28;20136;-66
2022/10/11 10:19:48;;;;;;;10.25;2.38;;;;;;;29.18;28.55;102673.34;5027971;28;20022;-66
2022/10/11 10:22:18;;;;;;;10.85;2.80;;;;;;;29.39;27.99;102673.75;5027693;28;20103;-66
2022/10/11 10:24:43;;;;;;;9.23;1.92;;;;;;;29.76;26.46;102666.22;5026716;28;20025;-67
2022/10/11 10:27:20;;;;;;;10.68;2.05;;;;;;;29.72;27.92;102666.00;5025614;28;20037;-67
2022/10/11 10:30:01;;;;;;;15.13;2.92;;;;;;;29.30;28.81;102669.16;5028172;28;20029;-67
2022/10/11 10:32:32;;;;;;;10.05;2.33;;;;;;;29.20;26.37;102668.22;5026863;28;20083;-67
2022/10/11 10:35:29;;;;;;;8.75;1.80;;;;;;;29.02;28.83;102665.47;5026050;28;20526;-67
2022/10/11 10:38:07;;;;;;;11.70;2.17;;;;;;;29.65;27.85;102665.63;5026545;28;20030;-67
2022/10/11 10:40:44;;;;;;;10.20;2.35;;;;;;;29.90;26.99;102661.34;5021066;28;20383;-67
2022/10/11 10:43:16;;;;;;;7.82;2.25;;;;;;;29.73;25.28;102664.03;5022389;28;20074;-67
2022/10/11 10:46:05;;;;;;;10.27;2.35;;;;;;;29.90;27.92;102666.19;5021258;28;20029;-67
2022/10/11 10:48:34;;;;;;;8.52;1.80;;;;;;;29.85;26.43;102666.28;5023818;28;20025;-67
2022/10/11 10:51:27;;;;;;;8.00;1.98;;;;;;;30.22;29.45;102657.50;5025764;28;20042;-67
2022/10/11 10:54:34;;;;;;;9.60;1.88;;;;;;;30.04;27.44;102666.16;5023177;28;20098;-67
2022/10/11 10:57:02;;;;;;;7.07;1.77;;;;;;;29.92;25.86;102658.22;5021227;28;20395;-67
2022/10/11 11:00:01;;;;;;;10.13;1.90;;;;;;;29.86;26.83;102660.34;5025496;28;20065;-67
2022/10/11 11:02:30;;;;;;;10.57;1.88;;;;;;;29.21;25.43;102660.56;5025385;28;20516;-67
2022/10/11 11:05:20;;;;;;;11.68;2.08;;;;;;;29.61;28.67;102658.06;5015887;28;20022;-67
2022/10/11 11:08:13;;;;;;;7.22;1.75;;;;;;;29.74;27.55;102660.03;5018893;28;20038;-67
2022/10/11 11:11:10;;;;;;;10.13;2.63;;;;;;;29.65;26.11;102653.44;5026467;28;20037;-67
2022/10/11 11:13:48;;;;;;;12.20;2.30;;;;;;;29.45;26.14;102655.53;5023881;28;20037;-66
2022/10/11 11:16:19;;;;;;;9.00;2.10;;;;;;;29.63;24.46;102645.25;5030664;28;20034;-67
2022/10/11 11:19:04;;;;;;;7.85;1.83;;;;;;;29.57;25.42;102640.03;5031021;28;20021;-67
2022/10/11 11:21:52;;;;;;;7.43;1.77;;;;;;;30.10;27.75;102650.69;5022986;28;20065;-68
2022/10/11 11:24:42;;;;;;;8.98;1.70;;;;;;;30.11;27.62;102639.06;5010234;28;20034;-68
2022/10/11 11:27:40;;;;;;;8.27;2.08;;;;;;;30.21;28.12;102626.63;5017471;28;20021;-68
2022/10/11 11:30:09;;;;;;;9.77;2.00;;;;;;;29.97;24.92;102629.75;5018310;28;20048;-67
2022/10/11 11:32:46;;;;;;;6.32;1.52;;;;;;;30.34;22.81;102630.59;5031100;28;20034;-68
2022/10/11 11:35:35;;;;;;;10.52;2.08;;;;;;;30.78;25.34;102623.22;5030004;28;20022;-68